Central

27 Stations

Daily Data | America/Los_Angeles
as of 4/17/21 12:42 AM PDT
Station Date Daily Max Temp (°F) Time of Max Temp Daily Min Temp (°F) Time of Min Temp Dew Pt (°F) Max RH (%) Min RH (%) Wind Spd (mph) Daily Max Wind (mph) Max Wind Dir (°) Time of Max Wind Daily Rain (In) Seasonal Rainfall (In) Daily ETo (in) Daily Solar Rad (Cal/cm2) Powdery Mildew Stress (pts)
Healdsburg-South (Sodini) 4/15/21 70.7   1.8 1624 40.1   5.5 0059 42.6   1.4 95   4 28   1 2.5 12.8   4.0 SE | 141 1455 0.00 11.99 - - 0   0
Windsor-NW (Ranch 8) 4/15/21 71.1   0.4 1625 42.9   3.6 0051 43.0   1.4 87   1 31   2 1.5 15.2   6.2 SSE | 156 1249 0.00 13.41 0.157   0.010 583   34 30   10
Windsor-East (Ranch 16) 4/15/21 66.8   3.8 1359 40.4   5.0 0059 42.0   1.5 93   6 26   3 3.3 13.9   3.9 SSE | 160 1413 0.00 11.92 0.157   0.015 572   37 0   0
Mark West-North (Ranch 14) 4/15/21 66.3   4.2 1515 43.3   6.7 0059 41.9   0.8 92   5 30   1 2.4 11.2   3.9 S | 191 1555 0.00 13.21 0.149   0.012 557   42 60   0
Windsor-SE (Silk Rd) 4/15/21 67.5   1.4 1622 39.3   4.3 0101 42.3   1.8 98   2 28   0 3.0 14.2   6.5 SSE | 154 1437 0.00 12.73 0.157   0.012 580   18 0   0
Fulton-NW (Ranch 5) 4/15/21 65.6   3.9 1507 42.3   6.3 0059 42.6   1.0 98   2 29   3 3.9 15.3   6.1 SE | 146 1410 0.00 14.10 0.152   0.015 554   43 0   0
Windsor-South (Laughlin Rd) 4/15/21 68.2   2.4 1608 42.2   5.0 0101 - - - - - - - 0.00 14.06 - - 0   0
Fulton-SE (Barnes Rd) 4/15/21 65.1   3.0 1455 43.3   6.1 0059 43.0   1.0 94   3 41   2 3.2 13.0   5.4 WSW | 242 1512 0.00 13.55 - - 0   0
Fulton-SW (Ranch 21) 4/15/21 65.7   3.7 1349 42.0   5.6 0057 41.7   0.6 96   1 31   4 3.9 14.7   8.6 S | 169 1558 0.00 12.51 0.151   0.013 549   44 0   0
Santa Rosa-NW (Goldfields) 4/15/21 66.2   1.7 1423 41.6   5.1 0059 42.4   0.5 98   2 32   4 3.7 15.4   6.7 SSE | 165 1354 0.00 11.70 0.149   0.003 543   3 0   0
NW Santa Rosa (Piner Road) 4/15/21 64.0   2.8 1541 39.1   3.2 0101 43.0   0.5 98   1 37   4 2.6 13.5   7.3 SW | 231 1507 0.00 12.33 - - 0   0
River Rd South (Denner Ranch) 4/15/21 65.8   2.6 1551 38.4   3.0 0052 43.1   0.9 100   0 36   1 4.4 17.1   7.7 SSE | 156 1417 0.00 12.57 - - 0   0
West Santa Rosa (Hawk's Roost) 4/15/21 64.7   3.2 1441 40.3   3.6 0059 42.0   0.0 98   1 34   2 2.1 11.9   7.3 SSE | 168 1456 0.00 13.12 0.137   0.011 514   29 0   0
Guerneville Rd (Prokopakis) 4/15/21 65.4   2.6 1619 38.2   2.9 0055 43.0   0.5 100   0 37   0 - - - - 0.00 12.34 - - 0   0
Guerneville Rd West (Balletto) 4/15/21 65.2   1.8 1427 39.3   2.4 0059 42.2   0.1 96   1 39   2 3.3 13.9   8.2 S | 191 1510 0.00 12.66 - - 0   0
Guerneville Rd East (Rich Ranch) 4/15/21 65.4   3.1 1425 39.0   3.4 0119 42.2   0.5 100   1 35   3 - - - - - - - - 0   0
Occidental Rd (Sebastopol) 4/15/21 64.3   2.0 1427 38.1   2.3 0046 45.6   0.2 100   0 34   11 3.2 16.7   8.3 SSW | 202 1459 0.00 13.40 - - 0   0
Lower Westside Rd (Ranch 12) 4/15/21 70.9   0.9 1518 38.8   1.9 0056 40.6   0.7 96   2 19   6 2.3 14.2   7.0 ESE | 123 1507 0.00 13.92 0.158   0.010 554   38 0   10
Guerneville (Laughlin Rd) 4/15/21 65.5   1.5 1324 37.7   2.7 0055 40.8   1.1 99   1 39   9 2.9 14.6   9.3 SE | 146 1509 0.00 17.38 - - 0   0
Korbel (Winery) 4/15/21 66.7   1.5 1343 40.9   1.9 0053 41.4   0.0 98   1 25   8 2.6 15.2   2.3 SW | 214 1501 0.00 17.03 - - 0   10
Forestville (Shone Farms) 4/15/21 70.0   23.8 1531 39.6   2.8 0052 41.0   1.0 95   1 24   3 2.6 14.5   6.7 S | 178 1442 0.00 14.65 0.156   0.015 569   46 0   0
Forestville-NE (Ranch 30) 4/15/21 68.9   0.5 1621 39.3   3.2 0059 41.8   1.0 97   1 30   2 2.9 19.4   3.3 SE | 144 1441 0.00 14.34 0.159   0.012 585   32 20   10
Graton-West (Dutton Ranch) 4/15/21 67.4   1.6 1445 37.4   1.5 0040 41.5   0.8 100   0 28   7 2.5 13.4   6.1 SW | 219 1505 0.00 16.84 - - 0   0
Graton-South (Mill Station Rd) 4/15/21 61.0   1.6 1434 36.8   3.5 0209 42.1   0.2 99   1 42   9 2.9 15.0   5.3 SW | 236 1538 0.00 15.12 - - 0   0
Sexton Valley (Jacqueline's Blk) 4/15/21 60.5   2.6 1410 37.1   2.8 0159 42.4   0.2 98   0 49   6 2.1 18.0   5.4 WNW | 283 1439 0.00 15.47 - - 0   0
Sebastopol Hills (Burnside Rd) 4/15/21 59.6   0.8 1425 41.3   1.7 0058 43.7   0.4 100   1 53   4 4.6 20.1   1.8 SSW | 208 1455 0.00 14.80 - - 0   0
Seaview/Fort Ross (Hirsch) 4/15/21 54.9   5.2 1635 39.3   1.4 0646 39.4   2.5 97   0 31   2 2.6 10.2   0.0 WSW | 245 1205 0.00 25.75 0.138   0.017 664   29 0   0
Max   71.1 - 43.3 - 45.6 100 53 4.6 20.1 - - 0.00 - 0.159 664 -
Avg   - - - - 42.2 - - 3.0 - - - - - - - -
Min   54.9 - 36.8 - 39.4 87 19 1.5 10.2 - - 0.00 - 0.137 514 -